Woodbury, Pennsylvania
Current Conditions -  °F | °C
As of 10:53 AM on Sunday 23 Nov 2014 (Local Time) from KAOO Reporting Station
Overcast Overcast  
Wind Chill: 56°   Ceiling: 9500
Heat Index: 56°   Visibility: 10mi
Dew Point: 31°   Wind: 6mph
Humidity: 39%   Direction: 180°S
Pressure: 30.11"   Gusts: NA
Location:  40.23°N, 78.37°W
Report Text: KAOO 231553Z AUTO 18005KT 10SM OVC095 13/M01 A3011 RMK AO2 SLP200 T01331006
Loading
Personal Weather Stations






























Interactive Weather Map New forecast layout! Learn more

10-Day Weather Forecast

Advertisements
Track Severe Weather on mobile